メインページ
METAR-TAF:

METAR-TAF

空港 :

Sabzevar, イラン

緯度: 36-13N, 経度: 057-40E, 海抜: 941m

現時点の気象観測

当レポートは8時間13分前の10:00(UTC)に作成
の風 6kt
気温 14°C
湿度 26%
気圧 1028 hPa
視程10km以上
高度3500ftの雲はほとんどない

METAR: OIMS 171000Z 09006KT 9999 FEW035 14/M05 Q1028

時間: 21:43 (18:13 UTC)


TAF: 見つかりません

4,000以上の空港の気象観測と天気予報(METAR報とTAF報)

利用可能な観測所は地図上に黄色い丸と赤い丸で示す。

丸の上にカーソルを重ねると観測所名を参照できる。

次にクリックすると気象観測と天気予報を参照できる。

マップの切り替え:黒色「×」印の緑ボタンをクリックして拡大、「-」印の緑ボタンをクリックして縮小、緑色の三角印をクリックして隣りの地図に切り替え


METAR-TAF: